sensor_id;sensor_type;location;lat;lon;timestamp;P1;durP1;ratioP1;P2;durP2;ratioP2
47784;SDS011;35233;55.686;37.848;2023-01-28T00:01:56;12.50;;;7.43;;
47784;SDS011;35233;55.686;37.848;2023-01-28T00:04:21;10.95;;;6.90;;
47784;SDS011;35233;55.686;37.848;2023-01-28T00:06:47;10.55;;;7.13;;
47784;SDS011;35233;55.686;37.848;2023-01-28T00:09:12;9.43;;;6.72;;
47784;SDS011;35233;55.686;37.848;2023-01-28T00:11:38;10.38;;;6.93;;
47784;SDS011;35233;55.686;37.848;2023-01-28T00:14:03;11.73;;;7.25;;
47784;SDS011;35233;55.686;37.848;2023-01-28T00:16:29;10.50;;;7.63;;
47784;SDS011;35233;55.686;37.848;2023-01-28T00:18:54;10.18;;;7.22;;
47784;SDS011;35233;55.686;37.848;2023-01-28T00:21:20;9.85;;;7.28;;
47784;SDS011;35233;55.686;37.848;2023-01-28T00:23:46;9.85;;;7.20;;
47784;SDS011;35233;55.686;37.848;2023-01-28T00:26:15;10.48;;;7.32;;
47784;SDS011;35233;55.686;37.848;2023-01-28T00:28:41;11.90;;;7.68;;
47784;SDS011;35233;55.686;37.848;2023-01-28T00:31:08;10.25;;;6.72;;
47784;SDS011;35233;55.686;37.848;2023-01-28T00:33:40;8.95;;;6.70;;
47784;SDS011;35233;55.686;37.848;2023-01-28T00:36:05;8.68;;;6.63;;
47784;SDS011;35233;55.686;37.848;2023-01-28T00:38:31;8.95;;;6.70;;
47784;SDS011;35233;55.686;37.848;2023-01-28T00:41:13;8.13;;;6.40;;
47784;SDS011;35233;55.686;37.848;2023-01-28T00:43:41;7.95;;;6.15;;
47784;SDS011;35233;55.686;37.848;2023-01-28T00:46:08;9.35;;;6.53;;
47784;SDS011;35233;55.686;37.848;2023-01-28T00:48:34;9.35;;;5.90;;
47784;SDS011;35233;55.686;37.848;2023-01-28T00:51:01;8.10;;;6.10;;
47784;SDS011;35233;55.686;37.848;2023-01-28T00:53:27;8.68;;;5.82;;
47784;SDS011;35233;55.686;37.848;2023-01-28T00:55:52;9.50;;;5.80;;
47784;SDS011;35233;55.686;37.848;2023-01-28T00:58:18;8.25;;;5.65;;
47784;SDS011;35233;55.686;37.848;2023-01-28T01:00:44;7.82;;;5.72;;
47784;SDS011;35233;55.686;37.848;2023-01-28T01:03:09;7.45;;;5.80;;
47784;SDS011;35233;55.686;37.848;2023-01-28T01:05:35;8.02;;;5.93;;
47784;SDS011;35233;55.686;37.848;2023-01-28T01:08:00;8.98;;;5.70;;
47784;SDS011;35233;55.686;37.848;2023-01-28T01:10:26;8.35;;;5.72;;
47784;SDS011;35233;55.686;37.848;2023-01-28T01:12:51;7.80;;;5.18;;
47784;SDS011;35233;55.686;37.848;2023-01-28T01:15:17;7.13;;;5.20;;
47784;SDS011;35233;55.686;37.848;2023-01-28T01:17:44;6.72;;;5.10;;
47784;SDS011;35233;55.686;37.848;2023-01-28T01:20:13;7.07;;;5.10;;
47784;SDS011;35233;55.686;37.848;2023-01-28T01:22:47;7.18;;;5.18;;
47784;SDS011;35233;55.686;37.848;2023-01-28T01:25:13;6.38;;;4.63;;
47784;SDS011;35233;55.686;37.848;2023-01-28T01:27:41;7.45;;;5.07;;
47784;SDS011;35233;55.686;37.848;2023-01-28T01:30:07;6.47;;;4.65;;
47784;SDS011;35233;55.686;37.848;2023-01-28T01:32:34;6.28;;;4.88;;
47784;SDS011;35233;55.686;37.848;2023-01-28T01:35:02;6.88;;;4.75;;
47784;SDS011;35233;55.686;37.848;2023-01-28T01:37:30;6.63;;;4.57;;
47784;SDS011;35233;55.686;37.848;2023-01-28T01:39:56;7.07;;;5.07;;
47784;SDS011;35233;55.686;37.848;2023-01-28T01:42:22;7.07;;;4.85;;
47784;SDS011;35233;55.686;37.848;2023-01-28T01:47:26;6.40;;;4.60;;
47784;SDS011;35233;55.686;37.848;2023-01-28T01:50:21;5.75;;;4.20;;
47784;SDS011;35233;55.686;37.848;2023-01-28T01:53:09;5.82;;;4.25;;
47784;SDS011;35233;55.686;37.848;2023-01-28T01:55:39;6.22;;;4.50;;
47784;SDS011;35233;55.686;37.848;2023-01-28T01:58:08;6.15;;;4.05;;
47784;SDS011;35233;55.686;37.848;2023-01-28T02:00:38;6.35;;;4.70;;
47784;SDS011;35233;55.686;37.848;2023-01-28T02:03:04;5.25;;;4.05;;
47784;SDS011;35233;55.686;37.848;2023-01-28T02:05:30;5.13;;;4.10;;
47784;SDS011;35233;55.686;37.848;2023-01-28T02:07:56;4.90;;;3.88;;
47784;SDS011;35233;55.686;37.848;2023-01-28T02:10:41;6.45;;;3.90;;
47784;SDS011;35233;55.686;37.848;2023-01-28T02:13:08;5.70;;;4.28;;
47784;SDS011;35233;55.686;37.848;2023-01-28T02:15:33;5.65;;;4.25;;
47784;SDS011;35233;55.686;37.848;2023-01-28T02:17:59;5.38;;;4.07;;
47784;SDS011;35233;55.686;37.848;2023-01-28T02:20:27;5.00;;;3.85;;
47784;SDS011;35233;55.686;37.848;2023-01-28T02:26:14;5.00;;;3.55;;
47784;SDS011;35233;55.686;37.848;2023-01-28T02:31:51;5.43;;;3.85;;
47784;SDS011;35233;55.686;37.848;2023-01-28T02:37:08;4.35;;;3.55;;
47784;SDS011;35233;55.686;37.848;2023-01-28T02:39:39;5.50;;;3.80;;
47784;SDS011;35233;55.686;37.848;2023-01-28T02:42:09;4.60;;;3.47;;
47784;SDS011;35233;55.686;37.848;2023-01-28T02:44:38;6.03;;;3.95;;
47784;SDS011;35233;55.686;37.848;2023-01-28T02:47:08;4.72;;;3.35;;
47784;SDS011;35233;55.686;37.848;2023-01-28T02:49:54;4.88;;;3.58;;
47784;SDS011;35233;55.686;37.848;2023-01-28T03:04:49;4.75;;;3.45;;
47784;SDS011;35233;55.686;37.848;2023-01-28T03:07:20;5.15;;;3.90;;
47784;SDS011;35233;55.686;37.848;2023-01-28T03:09:47;5.88;;;3.75;;
47784;SDS011;35233;55.686;37.848;2023-01-28T03:12:25;5.55;;;3.63;;
47784;SDS011;35233;55.686;37.848;2023-01-28T03:18:11;4.63;;;3.42;;
47784;SDS011;35233;55.686;37.848;2023-01-28T03:21:06;5.55;;;3.50;;
47784;SDS011;35233;55.686;37.848;2023-01-28T03:27:38;6.05;;;3.53;;
47784;SDS011;35233;55.686;37.848;2023-01-28T03:29:53;4.53;;;3.13;;
47784;SDS011;35233;55.686;37.848;2023-01-28T03:32:40;5.10;;;3.40;;
47784;SDS011;35233;55.686;37.848;2023-01-28T03:35:27;4.55;;;3.50;;
47784;SDS011;35233;55.686;37.848;2023-01-28T03:38:13;4.97;;;3.47;;
47784;SDS011;35233;55.686;37.848;2023-01-28T03:40:54;5.60;;;3.60;;
47784;SDS011;35233;55.686;37.848;2023-01-28T03:43:22;5.45;;;3.38;;
47784;SDS011;35233;55.686;37.848;2023-01-28T03:45:48;4.95;;;3.50;;
47784;SDS011;35233;55.686;37.848;2023-01-28T03:48:18;5.28;;;3.50;;
47784;SDS011;35233;55.686;37.848;2023-01-28T03:50:45;5.05;;;3.55;;
47784;SDS011;35233;55.686;37.848;2023-01-28T03:53:12;4.82;;;3.35;;
47784;SDS011;35233;55.686;37.848;2023-01-28T03:55:40;5.00;;;3.47;;
47784;SDS011;35233;55.686;37.848;2023-01-28T03:58:09;4.35;;;3.17;;
47784;SDS011;35233;55.686;37.848;2023-01-28T04:00:35;4.97;;;3.47;;
47784;SDS011;35233;55.686;37.848;2023-01-28T04:03:13;4.45;;;3.28;;
47784;SDS011;35233;55.686;37.848;2023-01-28T04:06:00;5.03;;;3.45;;
47784;SDS011;35233;55.686;37.848;2023-01-28T04:08:27;5.40;;;3.88;;
47784;SDS011;35233;55.686;37.848;2023-01-28T04:10:53;4.15;;;3.30;;
47784;SDS011;35233;55.686;37.848;2023-01-28T04:13:19;5.47;;;3.53;;
47784;SDS011;35233;55.686;37.848;2023-01-28T04:15:44;4.95;;;3.72;;
47784;SDS011;35233;55.686;37.848;2023-01-28T04:18:17;4.10;;;3.45;;
47784;SDS011;35233;55.686;37.848;2023-01-28T04:20:51;4.40;;;3.35;;
47784;SDS011;35233;55.686;37.848;2023-01-28T04:23:16;4.68;;;3.55;;
47784;SDS011;35233;55.686;37.848;2023-01-28T04:25:42;4.32;;;3.10;;
47784;SDS011;35233;55.686;37.848;2023-01-28T04:28:08;5.32;;;3.97;;
47784;SDS011;35233;55.686;37.848;2023-01-28T04:30:33;4.97;;;3.53;;
47784;SDS011;35233;55.686;37.848;2023-01-28T04:32:59;4.47;;;3.42;;
47784;SDS011;35233;55.686;37.848;2023-01-28T04:35:24;5.22;;;3.60;;
47784;SDS011;35233;55.686;37.848;2023-01-28T04:37:50;3.88;;;3.22;;
47784;SDS011;35233;55.686;37.848;2023-01-28T04:40:15;4.25;;;2.97;;
47784;SDS011;35233;55.686;37.848;2023-01-28T04:42:41;3.95;;;3.13;;
47784;SDS011;35233;55.686;37.848;2023-01-28T04:45:07;4.30;;;3.28;;
47784;SDS011;35233;55.686;37.848;2023-01-28T04:47:32;3.67;;;2.75;;
47784;SDS011;35233;55.686;37.848;2023-01-28T04:49:58;4.38;;;3.30;;
47784;SDS011;35233;55.686;37.848;2023-01-28T04:52:23;4.45;;;3.25;;
47784;SDS011;35233;55.686;37.848;2023-01-28T04:54:49;4.28;;;3.22;;
47784;SDS011;35233;55.686;37.848;2023-01-28T04:57:14;4.65;;;3.30;;
47784;SDS011;35233;55.686;37.848;2023-01-28T04:59:40;4.00;;;3.10;;
47784;SDS011;35233;55.686;37.848;2023-01-28T05:02:06;4.18;;;3.20;;
47784;SDS011;35233;55.686;37.848;2023-01-28T05:04:31;4.53;;;3.17;;
47784;SDS011;35233;55.686;37.848;2023-01-28T05:06:57;4.38;;;3.22;;
47784;SDS011;35233;55.686;37.848;2023-01-28T05:09:22;5.00;;;3.42;;
47784;SDS011;35233;55.686;37.848;2023-01-28T05:11:48;4.80;;;3.70;;
47784;SDS011;35233;55.686;37.848;2023-01-28T05:14:13;4.05;;;2.95;;
47784;SDS011;35233;55.686;37.848;2023-01-28T05:16:39;4.47;;;3.33;;
47784;SDS011;35233;55.686;37.848;2023-01-28T05:19:05;4.97;;;3.50;;
47784;SDS011;35233;55.686;37.848;2023-01-28T05:21:30;3.90;;;3.15;;
47784;SDS011;35233;55.686;37.848;2023-01-28T05:23:56;4.70;;;3.50;;
47784;SDS011;35233;55.686;37.848;2023-01-28T05:26:21;5.22;;;3.42;;
47784;SDS011;35233;55.686;37.848;2023-01-28T05:28:47;4.70;;;3.40;;
47784;SDS011;35233;55.686;37.848;2023-01-28T05:31:12;6.38;;;3.95;;
47784;SDS011;35233;55.686;37.848;2023-01-28T05:33:38;5.90;;;4.30;;
47784;SDS011;35233;55.686;37.848;2023-01-28T05:36:03;6.10;;;4.10;;
47784;SDS011;35233;55.686;37.848;2023-01-28T05:38:29;5.20;;;3.95;;
47784;SDS011;35233;55.686;37.848;2023-01-28T05:40:55;6.00;;;4.38;;
47784;SDS011;35233;55.686;37.848;2023-01-28T05:43:20;5.65;;;4.25;;
47784;SDS011;35233;55.686;37.848;2023-01-28T05:45:46;6.35;;;4.40;;
47784;SDS011;35233;55.686;37.848;2023-01-28T05:48:11;5.53;;;4.10;;
47784;SDS011;35233;55.686;37.848;2023-01-28T05:50:37;5.72;;;4.13;;
47784;SDS011;35233;55.686;37.848;2023-01-28T05:53:06;5.55;;;4.30;;
47784;SDS011;35233;55.686;37.848;2023-01-28T05:55:31;5.60;;;4.50;;
47784;SDS011;35233;55.686;37.848;2023-01-28T05:57:57;5.65;;;4.43;;
47784;SDS011;35233;55.686;37.848;2023-01-28T06:00:23;6.68;;;4.80;;
47784;SDS011;35233;55.686;37.848;2023-01-28T06:02:49;6.13;;;4.45;;
47784;SDS011;35233;55.686;37.848;2023-01-28T06:05:15;6.20;;;5.03;;
47784;SDS011;35233;55.686;37.848;2023-01-28T06:07:43;7.43;;;4.57;;
47784;SDS011;35233;55.686;37.848;2023-01-28T06:10:09;6.30;;;4.70;;
47784;SDS011;35233;55.686;37.848;2023-01-28T06:12:35;7.85;;;5.05;;
47784;SDS011;35233;55.686;37.848;2023-01-28T06:15:01;6.95;;;5.00;;
47784;SDS011;35233;55.686;37.848;2023-01-28T06:17:26;6.35;;;4.38;;
47784;SDS011;35233;55.686;37.848;2023-01-28T06:19:52;6.85;;;4.80;;
47784;SDS011;35233;55.686;37.848;2023-01-28T06:22:17;6.65;;;4.90;;
47784;SDS011;35233;55.686;37.848;2023-01-28T06:24:43;5.90;;;4.45;;
47784;SDS011;35233;55.686;37.848;2023-01-28T06:27:08;6.55;;;4.78;;
47784;SDS011;35233;55.686;37.848;2023-01-28T06:29:33;6.50;;;5.15;;
47784;SDS011;35233;55.686;37.848;2023-01-28T06:32:02;6.43;;;4.70;;
47784;SDS011;35233;55.686;37.848;2023-01-28T06:34:27;6.22;;;4.82;;
47784;SDS011;35233;55.686;37.848;2023-01-28T06:36:53;7.95;;;4.97;;
47784;SDS011;35233;55.686;37.848;2023-01-28T06:39:21;6.50;;;4.90;;
47784;SDS011;35233;55.686;37.848;2023-01-28T06:41:47;6.25;;;4.53;;
47784;SDS011;35233;55.686;37.848;2023-01-28T06:44:14;7.10;;;4.82;;
47784;SDS011;35233;55.686;37.848;2023-01-28T06:46:39;6.28;;;4.72;;
47784;SDS011;35233;55.686;37.848;2023-01-28T06:49:05;6.30;;;4.90;;
47784;SDS011;35233;55.686;37.848;2023-01-28T06:51:31;6.53;;;5.10;;
47784;SDS011;35233;55.686;37.848;2023-01-28T06:53:56;6.65;;;5.03;;
47784;SDS011;35233;55.686;37.848;2023-01-28T06:56:22;7.85;;;5.10;;
47784;SDS011;35233;55.686;37.848;2023-01-28T06:58:48;6.20;;;5.07;;
47784;SDS011;35233;55.686;37.848;2023-01-28T07:01:13;8.25;;;5.47;;
47784;SDS011;35233;55.686;37.848;2023-01-28T07:03:39;9.13;;;5.80;;
47784;SDS011;35233;55.686;37.848;2023-01-28T07:06:04;8.48;;;5.75;;
47784;SDS011;35233;55.686;37.848;2023-01-28T07:08:30;7.03;;;5.68;;
47784;SDS011;35233;55.686;37.848;2023-01-28T07:10:57;13.98;;;6.88;;
47784;SDS011;35233;55.686;37.848;2023-01-28T07:13:23;9.85;;;6.68;;
47784;SDS011;35233;55.686;37.848;2023-01-28T07:15:48;8.10;;;5.93;;
47784;SDS011;35233;55.686;37.848;2023-01-28T07:18:14;10.15;;;6.43;;
47784;SDS011;35233;55.686;37.848;2023-01-28T07:20:40;10.60;;;6.30;;
47784;SDS011;35233;55.686;37.848;2023-01-28T07:23:06;9.75;;;5.82;;
47784;SDS011;35233;55.686;37.848;2023-01-28T07:25:31;8.38;;;5.72;;
47784;SDS011;35233;55.686;37.848;2023-01-28T07:27:57;8.38;;;5.90;;
47784;SDS011;35233;55.686;37.848;2023-01-28T07:30:23;7.78;;;6.05;;
47784;SDS011;35233;55.686;37.848;2023-01-28T07:32:54;9.73;;;6.38;;
47784;SDS011;35233;55.686;37.848;2023-01-28T07:35:21;9.15;;;6.70;;
47784;SDS011;35233;55.686;37.848;2023-01-28T07:37:50;8.35;;;6.35;;
47784;SDS011;35233;55.686;37.848;2023-01-28T07:40:17;8.77;;;6.50;;
47784;SDS011;35233;55.686;37.848;2023-01-28T07:42:43;7.28;;;6.10;;
47784;SDS011;35233;55.686;37.848;2023-01-28T07:45:12;8.13;;;5.60;;
47784;SDS011;35233;55.686;37.848;2023-01-28T07:47:38;8.70;;;5.80;;
47784;SDS011;35233;55.686;37.848;2023-01-28T07:50:03;9.07;;;6.32;;
47784;SDS011;35233;55.686;37.848;2023-01-28T07:52:29;7.72;;;5.50;;
47784;SDS011;35233;55.686;37.848;2023-01-28T07:54:55;11.50;;;6.82;;
47784;SDS011;35233;55.686;37.848;2023-01-28T07:57:20;9.45;;;6.68;;
47784;SDS011;35233;55.686;37.848;2023-01-28T07:59:49;13.00;;;7.47;;
47784;SDS011;35233;55.686;37.848;2023-01-28T08:02:17;13.30;;;7.82;;
47784;SDS011;35233;55.686;37.848;2023-01-28T08:04:43;15.90;;;9.23;;
47784;SDS011;35233;55.686;37.848;2023-01-28T08:07:08;18.00;;;9.50;;
47784;SDS011;35233;55.686;37.848;2023-01-28T08:09:34;12.75;;;9.02;;
47784;SDS011;35233;55.686;37.848;2023-01-28T08:12:02;15.30;;;10.00;;
47784;SDS011;35233;55.686;37.848;2023-01-28T08:14:28;15.50;;;10.40;;
47784;SDS011;35233;55.686;37.848;2023-01-28T08:16:53;14.25;;;9.52;;
47784;SDS011;35233;55.686;37.848;2023-01-28T08:19:19;15.82;;;10.27;;
47784;SDS011;35233;55.686;37.848;2023-01-28T08:21:48;16.10;;;10.70;;
47784;SDS011;35233;55.686;37.848;2023-01-28T08:24:14;16.70;;;10.70;;
47784;SDS011;35233;55.686;37.848;2023-01-28T08:26:39;14.75;;;10.02;;
47784;SDS011;35233;55.686;37.848;2023-01-28T08:29:05;14.38;;;9.52;;
47784;SDS011;35233;55.686;37.848;2023-01-28T08:31:31;15.02;;;9.98;;
47784;SDS011;35233;55.686;37.848;2023-01-28T08:33:56;15.60;;;9.82;;
47784;SDS011;35233;55.686;37.848;2023-01-28T08:36:22;13.77;;;8.82;;
47784;SDS011;35233;55.686;37.848;2023-01-28T08:38:53;13.30;;;8.82;;
47784;SDS011;35233;55.686;37.848;2023-01-28T08:41:20;13.38;;;8.88;;
47784;SDS011;35233;55.686;37.848;2023-01-28T08:43:46;14.27;;;9.10;;
47784;SDS011;35233;55.686;37.848;2023-01-28T08:46:12;15.50;;;9.82;;
47784;SDS011;35233;55.686;37.848;2023-01-28T08:48:37;14.70;;;9.13;;
47784;SDS011;35233;55.686;37.848;2023-01-28T08:51:03;15.20;;;9.48;;
47784;SDS011;35233;55.686;37.848;2023-01-28T08:53:28;13.52;;;9.52;;
47784;SDS011;35233;55.686;37.848;2023-01-28T08:55:54;14.07;;;9.73;;
47784;SDS011;35233;55.686;37.848;2023-01-28T08:58:19;13.82;;;9.23;;
47784;SDS011;35233;55.686;37.848;2023-01-28T09:00:46;16.77;;;9.90;;
47784;SDS011;35233;55.686;37.848;2023-01-28T09:03:12;16.25;;;9.40;;
47784;SDS011;35233;55.686;37.848;2023-01-28T09:05:38;16.33;;;9.27;;
47784;SDS011;35233;55.686;37.848;2023-01-28T09:08:05;14.13;;;8.75;;
47784;SDS011;35233;55.686;37.848;2023-01-28T09:10:35;14.35;;;9.40;;
47784;SDS011;35233;55.686;37.848;2023-01-28T09:13:06;14.15;;;9.18;;
47784;SDS011;35233;55.686;37.848;2023-01-28T09:15:33;13.55;;;8.98;;
47784;SDS011;35233;55.686;37.848;2023-01-28T09:18:00;15.35;;;9.18;;
47784;SDS011;35233;55.686;37.848;2023-01-28T09:20:27;13.40;;;9.23;;
47784;SDS011;35233;55.686;37.848;2023-01-28T09:22:53;12.65;;;8.45;;
47784;SDS011;35233;55.686;37.848;2023-01-28T09:25:18;14.75;;;9.10;;
47784;SDS011;35233;55.686;37.848;2023-01-28T09:27:45;13.63;;;8.63;;
47784;SDS011;35233;55.686;37.848;2023-01-28T09:30:11;13.20;;;8.95;;
47784;SDS011;35233;55.686;37.848;2023-01-28T09:32:37;14.07;;;9.43;;
47784;SDS011;35233;55.686;37.848;2023-01-28T09:35:03;14.00;;;8.57;;
47784;SDS011;35233;55.686;37.848;2023-01-28T09:37:29;14.98;;;9.13;;
47784;SDS011;35233;55.686;37.848;2023-01-28T09:39:55;13.23;;;8.75;;
47784;SDS011;35233;55.686;37.848;2023-01-28T09:47:54;12.80;;;8.20;;
47784;SDS011;35233;55.686;37.848;2023-01-28T09:50:25;12.57;;;8.70;;
47784;SDS011;35233;55.686;37.848;2023-01-28T09:53:09;12.75;;;8.90;;
47784;SDS011;35233;55.686;37.848;2023-01-28T09:55:37;12.85;;;9.35;;
47784;SDS011;35233;55.686;37.848;2023-01-28T09:58:09;14.10;;;8.98;;
47784;SDS011;35233;55.686;37.848;2023-01-28T10:14:12;14.32;;;8.63;;
47784;SDS011;35233;55.686;37.848;2023-01-28T10:19:48;17.65;;;8.77;;
47784;SDS011;35233;55.686;37.848;2023-01-28T10:22:23;12.48;;;8.32;;
47784;SDS011;35233;55.686;37.848;2023-01-28T10:24:56;14.48;;;9.52;;
47784;SDS011;35233;55.686;37.848;2023-01-28T10:27:30;12.40;;;7.85;;
47784;SDS011;35233;55.686;37.848;2023-01-28T10:29:58;14.70;;;8.80;;
47784;SDS011;35233;55.686;37.848;2023-01-28T10:34:55;11.50;;;8.00;;
47784;SDS011;35233;55.686;37.848;2023-01-28T10:37:23;13.00;;;8.85;;
47784;SDS011;35233;55.686;37.848;2023-01-28T10:39:49;12.25;;;8.55;;
47784;SDS011;35233;55.686;37.848;2023-01-28T10:44:53;12.60;;;8.52;;
47784;SDS011;35233;55.686;37.848;2023-01-28T10:47:34;11.05;;;7.65;;
47784;SDS011;35233;55.686;37.848;2023-01-28T10:50:05;12.13;;;8.85;;
47784;SDS011;35233;55.686;37.848;2023-01-28T10:52:39;11.43;;;8.07;;
47784;SDS011;35233;55.686;37.848;2023-01-28T10:55:16;11.57;;;7.38;;
47784;SDS011;35233;55.686;37.848;2023-01-28T10:57:42;11.65;;;7.28;;
47784;SDS011;35233;55.686;37.848;2023-01-28T11:02:46;12.30;;;8.20;;
47784;SDS011;35233;55.686;37.848;2023-01-28T11:07:45;12.25;;;7.82;;
47784;SDS011;35233;55.686;37.848;2023-01-28T11:12:59;11.93;;;7.85;;
47784;SDS011;35233;55.686;37.848;2023-01-28T11:15:27;13.57;;;7.93;;
47784;SDS011;35233;55.686;37.848;2023-01-28T11:17:58;11.60;;;7.30;;
47784;SDS011;35233;55.686;37.848;2023-01-28T11:20:27;11.95;;;8.13;;
47784;SDS011;35233;55.686;37.848;2023-01-28T11:22:54;11.20;;;7.22;;
47784;SDS011;35233;55.686;37.848;2023-01-28T11:25:31;10.23;;;6.78;;
47784;SDS011;35233;55.686;37.848;2023-01-28T11:27:59;10.20;;;7.18;;
47784;SDS011;35233;55.686;37.848;2023-01-28T11:30:38;9.75;;;7.20;;
47784;SDS011;35233;55.686;37.848;2023-01-28T11:35:40;10.60;;;7.47;;
47784;SDS011;35233;55.686;37.848;2023-01-28T11:38:45;10.40;;;7.13;;
47784;SDS011;35233;55.686;37.848;2023-01-28T11:40:58;10.63;;;7.45;;
47784;SDS011;35233;55.686;37.848;2023-01-28T11:43:26;9.82;;;7.40;;
47784;SDS011;35233;55.686;37.848;2023-01-28T11:46:02;10.35;;;6.97;;
47784;SDS011;35233;55.686;37.848;2023-01-28T11:59:48;9.23;;;6.65;;
47784;SDS011;35233;55.686;37.848;2023-01-28T12:02:35;11.50;;;7.10;;
47784;SDS011;35233;55.686;37.848;2023-01-28T12:08:34;11.15;;;7.55;;
47784;SDS011;35233;55.686;37.848;2023-01-28T12:11:12;10.77;;;7.07;;
47784;SDS011;35233;55.686;37.848;2023-01-28T12:14:14;11.77;;;7.28;;
47784;SDS011;35233;55.686;37.848;2023-01-28T12:25:20;9.85;;;7.22;;
47784;SDS011;35233;55.686;37.848;2023-01-28T12:32:51;11.43;;;7.82;;
47784;SDS011;35233;55.686;37.848;2023-01-28T12:46:07;10.15;;;7.45;;
47784;SDS011;35233;55.686;37.848;2023-01-28T12:48:39;9.88;;;7.10;;
47784;SDS011;35233;55.686;37.848;2023-01-28T12:54:00;8.52;;;6.47;;
47784;SDS011;35233;55.686;37.848;2023-01-28T12:56:36;9.60;;;7.35;;
47784;SDS011;35233;55.686;37.848;2023-01-28T13:04:36;9.10;;;6.70;;
47784;SDS011;35233;55.686;37.848;2023-01-28T13:07:08;10.65;;;6.50;;
47784;SDS011;35233;55.686;37.848;2023-01-28T13:09:45;9.80;;;6.60;;
47784;SDS011;35233;55.686;37.848;2023-01-28T13:12:15;10.30;;;7.28;;
47784;SDS011;35233;55.686;37.848;2023-01-28T13:14:42;10.00;;;7.50;;
47784;SDS011;35233;55.686;37.848;2023-01-28T13:17:23;13.07;;;7.63;;
47784;SDS011;35233;55.686;37.848;2023-01-28T13:19:51;12.63;;;7.90;;
47784;SDS011;35233;55.686;37.848;2023-01-28T13:22:33;9.80;;;7.35;;
47784;SDS011;35233;55.686;37.848;2023-01-28T13:27:58;10.38;;;7.10;;
47784;SDS011;35233;55.686;37.848;2023-01-28T13:32:57;9.55;;;7.10;;
47784;SDS011;35233;55.686;37.848;2023-01-28T13:35:29;10.38;;;7.05;;
47784;SDS011;35233;55.686;37.848;2023-01-28T13:37:54;11.63;;;7.38;;
47784;SDS011;35233;55.686;37.848;2023-01-28T13:45:57;11.52;;;7.88;;
47784;SDS011;35233;55.686;37.848;2023-01-28T13:50:56;12.32;;;7.93;;
47784;SDS011;35233;55.686;37.848;2023-01-28T13:56:19;10.57;;;7.65;;
47784;SDS011;35233;55.686;37.848;2023-01-28T14:09:39;11.25;;;7.25;;
47784;SDS011;35233;55.686;37.848;2023-01-28T14:15:24;10.40;;;7.32;;
47784;SDS011;35233;55.686;37.848;2023-01-28T14:17:56;12.07;;;8.45;;
47784;SDS011;35233;55.686;37.848;2023-01-28T14:23:05;12.25;;;8.00;;
47784;SDS011;35233;55.686;37.848;2023-01-28T14:31:23;12.25;;;8.13;;
47784;SDS011;35233;55.686;37.848;2023-01-28T14:33:52;11.60;;;8.27;;
47784;SDS011;35233;55.686;37.848;2023-01-28T14:36:18;11.40;;;7.55;;
47784;SDS011;35233;55.686;37.848;2023-01-28T14:38:44;13.50;;;9.02;;
47784;SDS011;35233;55.686;37.848;2023-01-28T14:41:17;14.15;;;8.43;;
47784;SDS011;35233;55.686;37.848;2023-01-28T14:43:49;10.52;;;7.72;;
47784;SDS011;35233;55.686;37.848;2023-01-28T14:46:25;11.57;;;8.20;;
47784;SDS011;35233;55.686;37.848;2023-01-28T14:51:51;12.13;;;8.38;;
47784;SDS011;35233;55.686;37.848;2023-01-28T14:59:52;10.98;;;8.18;;
47784;SDS011;35233;55.686;37.848;2023-01-28T15:02:25;12.05;;;8.30;;
47784;SDS011;35233;55.686;37.848;2023-01-28T15:04:53;9.73;;;7.63;;
47784;SDS011;35233;55.686;37.848;2023-01-28T15:07:28;12.50;;;8.23;;
47784;SDS011;35233;55.686;37.848;2023-01-28T15:12:27;10.82;;;7.95;;
47784;SDS011;35233;55.686;37.848;2023-01-28T15:14:56;12.75;;;8.70;;
47784;SDS011;35233;55.686;37.848;2023-01-28T15:17:25;11.52;;;8.18;;
47784;SDS011;35233;55.686;37.848;2023-01-28T15:19:53;10.68;;;7.93;;
47784;SDS011;35233;55.686;37.848;2023-01-28T15:22:21;11.50;;;8.25;;
47784;SDS011;35233;55.686;37.848;2023-01-28T15:24:53;10.52;;;8.30;;
47784;SDS011;35233;55.686;37.848;2023-01-28T15:27:23;11.55;;;8.07;;
47784;SDS011;35233;55.686;37.848;2023-01-28T15:29:57;10.85;;;7.43;;
47784;SDS011;35233;55.686;37.848;2023-01-28T15:32:27;13.18;;;8.98;;
47784;SDS011;35233;55.686;37.848;2023-01-28T15:35:00;12.02;;;7.70;;
47784;SDS011;35233;55.686;37.848;2023-01-28T15:37:25;11.02;;;8.45;;
47784;SDS011;35233;55.686;37.848;2023-01-28T15:40:16;12.45;;;8.30;;
47784;SDS011;35233;55.686;37.848;2023-01-28T15:42:45;11.60;;;8.15;;
47784;SDS011;35233;55.686;37.848;2023-01-28T15:45:18;14.60;;;8.73;;
47784;SDS011;35233;55.686;37.848;2023-01-28T15:47:46;12.60;;;8.00;;
47784;SDS011;35233;55.686;37.848;2023-01-28T15:50:23;10.20;;;7.85;;
47784;SDS011;35233;55.686;37.848;2023-01-28T15:52:50;14.50;;;8.48;;
47784;SDS011;35233;55.686;37.848;2023-01-28T15:58:46;12.90;;;8.40;;
47784;SDS011;35233;55.686;37.848;2023-01-28T16:03:33;10.73;;;7.93;;
47784;SDS011;35233;55.686;37.848;2023-01-28T16:06:06;11.80;;;8.43;;
47784;SDS011;35233;55.686;37.848;2023-01-28T16:11:07;10.48;;;7.70;;
47784;SDS011;35233;55.686;37.848;2023-01-28T16:13:34;10.98;;;7.53;;
47784;SDS011;35233;55.686;37.848;2023-01-28T16:16:05;11.63;;;7.72;;
47784;SDS011;35233;55.686;37.848;2023-01-28T16:23:36;10.57;;;7.60;;
47784;SDS011;35233;55.686;37.848;2023-01-28T16:26:22;11.57;;;7.03;;
47784;SDS011;35233;55.686;37.848;2023-01-28T16:28:49;10.95;;;7.95;;
47784;SDS011;35233;55.686;37.848;2023-01-28T16:31:19;11.30;;;7.65;;
47784;SDS011;35233;55.686;37.848;2023-01-28T16:33:47;10.63;;;7.80;;
47784;SDS011;35233;55.686;37.848;2023-01-28T16:36:16;11.95;;;8.18;;
47784;SDS011;35233;55.686;37.848;2023-01-28T16:38:43;12.25;;;8.13;;
47784;SDS011;35233;55.686;37.848;2023-01-28T16:42:10;9.20;;;7.38;;
47784;SDS011;35233;55.686;37.848;2023-01-28T16:44:14;11.57;;;8.48;;
47784;SDS011;35233;55.686;37.848;2023-01-28T16:46:41;10.98;;;8.15;;
47784;SDS011;35233;55.686;37.848;2023-01-28T16:49:07;11.15;;;7.95;;
47784;SDS011;35233;55.686;37.848;2023-01-28T16:51:34;12.27;;;8.35;;
47784;SDS011;35233;55.686;37.848;2023-01-28T16:54:01;11.82;;;8.52;;
47784;SDS011;35233;55.686;37.848;2023-01-28T16:56:28;12.65;;;8.40;;
47784;SDS011;35233;55.686;37.848;2023-01-28T16:58:54;12.90;;;8.85;;
47784;SDS011;35233;55.686;37.848;2023-01-28T17:01:20;16.98;;;9.07;;
47784;SDS011;35233;55.686;37.848;2023-01-28T17:03:46;15.27;;;10.13;;
47784;SDS011;35233;55.686;37.848;2023-01-28T17:06:18;30.13;;;17.67;;
47784;SDS011;35233;55.686;37.848;2023-01-28T17:08:44;101.03;;;57.45;;
47784;SDS011;35233;55.686;37.848;2023-01-28T17:11:10;139.77;;;77.75;;
47784;SDS011;35233;55.686;37.848;2023-01-28T17:13:38;105.03;;;64.40;;
47784;SDS011;35233;55.686;37.848;2023-01-28T17:16:04;75.78;;;45.13;;
47784;SDS011;35233;55.686;37.848;2023-01-28T17:18:30;61.38;;;38.20;;
47784;SDS011;35233;55.686;37.848;2023-01-28T17:21:05;50.38;;;30.70;;
47784;SDS011;35233;55.686;37.848;2023-01-28T17:23:31;43.63;;;26.50;;
47784;SDS011;35233;55.686;37.848;2023-01-28T17:26:08;41.22;;;25.73;;
47784;SDS011;35233;55.686;37.848;2023-01-28T17:28:37;40.22;;;23.40;;
47784;SDS011;35233;55.686;37.848;2023-01-28T17:31:06;37.00;;;23.25;;
47784;SDS011;35233;55.686;37.848;2023-01-28T17:33:36;36.25;;;22.25;;
47784;SDS011;35233;55.686;37.848;2023-01-28T17:36:03;32.88;;;21.48;;
47784;SDS011;35233;55.686;37.848;2023-01-28T17:38:29;31.83;;;19.85;;